Time;durP1;ratioP1;P1;durP2;ratioP2;P2;SDS_P1;SDS_P2;PMS_P1;PMS_P2;Temp;Humidity;BMP_temperature;BMP_pressure;BME280_temperature;BME280_humidity;BME280_pressure;Samples;Min_cycle;Max_cycle;Signal;HPM_P1;HPM_P2
2024/01/19 00:00:59;;;;;;;;;43.00;36.00;;;;;-143.90;100.00;75970.31;4936764;28;102085;-76
2024/01/19 00:03:26;;;;;;;;;46.67;36.67;;;;;-143.90;100.00;75974.44;4957821;28;101605;-76
2024/01/19 00:05:53;;;;;;;;;42.33;32.00;;;;;-143.90;100.00;75984.78;4914054;28;103751;-76
2024/01/19 00:08:19;;;;;;;;;39.00;32.67;;;;;-143.90;100.00;75978.59;4940199;28;102628;-76
2024/01/19 00:10:46;;;;;;;;;34.67;26.67;;;;;-143.90;100.00;75970.31;4953580;28;102094;-77
2024/01/19 00:13:12;;;;;;;;;37.00;30.00;;;;;-143.90;100.00;75970.31;4946938;28;102153;-77
2024/01/19 00:15:39;;;;;;;;;50.00;39.00;;;;;-143.90;100.00;75984.78;4898830;28;103494;-76
2024/01/19 00:18:08;;;;;;;;;52.33;39.67;;;;;-143.90;100.00;76009.59;4969982;28;103520;-77
2024/01/19 00:20:35;;;;;;;;;62.33;46.00;;;;;-143.90;100.00;76015.81;4937728;28;101944;-77
2024/01/19 00:23:02;;;;;;;;;59.00;44.00;;;;;-143.90;100.00;76019.94;4923385;28;104626;-77
2024/01/19 00:25:29;;;;;;;;;59.33;45.33;;;;;-143.90;100.00;76017.88;4940898;28;108212;-77
2024/01/19 00:27:56;;;;;;;;;50.33;36.00;;;;;-143.90;100.00;76011.66;4938162;28;101981;-77
2024/01/19 00:30:23;;;;;;;;;54.00;39.00;;;;;-143.90;100.00;76019.94;4943660;28;101592;-78
2024/01/19 00:32:49;;;;;;;;;31.00;24.00;;;;;-143.90;100.00;76003.41;4937002;28;101518;-77
2024/01/19 00:35:16;;;;;;;;;54.33;43.33;;;;;-143.90;100.00;76032.34;4955699;28;103548;-77
2024/01/19 00:37:47;;;;;;;;;56.67;44.67;;;;;-143.90;100.00;76038.56;4951323;28;105405;-76
2024/01/19 00:40:14;;;;;;;;;59.00;44.67;;;;;-143.90;100.00;76050.97;4964797;28;101643;-76
2024/01/19 00:42:42;;;;;;;;;52.67;40.00;;;;;-143.90;100.00;76044.75;4966735;28;102113;-76
2024/01/19 00:45:09;;;;;;;;;44.33;36.67;;;;;-143.90;100.00;76042.69;4950952;28;103616;-77
2024/01/19 00:47:36;;;;;;;;;48.67;36.67;;;;;-143.90;100.00;76040.63;4916902;28;101776;-77
2024/01/19 00:50:05;;;;;;;;;29.00;25.00;;;;;-143.90;100.00;76046.81;4932884;28;101446;-78
2024/01/19 00:52:32;;;;;;;;;36.00;22.33;;;;;-143.90;100.00;76028.22;4952494;28;101907;-78
2024/01/19 00:54:59;;;;;;;;;44.33;36.33;;;;;-143.90;100.00;76032.34;4962172;28;107892;-77
2024/01/19 00:57:25;;;;;;;;;35.67;19.33;;;;;-143.90;100.00;76048.88;4968760;28;101825;-78
2024/01/19 00:59:53;;;;;;;;;42.33;33.33;;;;;-143.90;100.00;76044.75;4929297;28;104104;-78
2024/01/19 01:02:19;;;;;;;;;44.00;32.67;;;;;-143.90;100.00;76042.69;4954049;28;101799;-78
2024/01/19 01:04:46;;;;;;;;;47.67;40.67;;;;;-143.90;100.00;76063.38;4926607;28;103622;-78
2024/01/19 01:07:13;;;;;;;;;53.00;44.67;;;;;-143.90;100.00;76059.22;4947604;28;102400;-77
2024/01/19 01:09:40;;;;;;;;;44.00;30.00;;;;;-143.90;100.00;76050.97;4927220;28;102251;-77
2024/01/19 01:12:06;;;;;;;;;54.00;41.67;;;;;-143.90;100.00;76063.38;4959910;28;101799;-76
2024/01/19 01:14:33;;;;;;;;;63.00;42.33;;;;;-143.90;100.00;76065.44;4959169;28;103537;-77
2024/01/19 01:17:00;;;;;;;;;37.67;31.00;;;;;-143.90;100.00;76061.31;4956126;28;102086;-78
2024/01/19 01:19:26;;;;;;;;;53.67;44.67;;;;;-143.90;100.00;76073.72;4954939;28;102482;-78
2024/01/19 01:21:53;;;;;;;;;45.00;40.33;;;;;-143.90;100.00;76075.78;4938341;28;103109;-78
2024/01/19 01:24:22;;;;;;;;;52.33;39.67;;;;;-143.90;100.00;76086.13;4955965;28;103436;-77
2024/01/19 01:26:48;;;;;;;;;43.00;39.33;;;;;-143.90;100.00;76098.53;4962657;28;103027;-78
2024/01/19 01:29:15;;;;;;;;;59.67;43.33;;;;;-143.90;100.00;76108.84;4965435;28;101777;-78
2024/01/19 01:31:42;;;;;;;;;50.67;38.33;;;;;-143.90;100.00;76115.06;4938894;28;101678;-77
2024/01/19 01:34:09;;;;;;;;;41.00;34.67;;;;;-143.90;100.00;76121.28;4946677;28;102539;-77
2024/01/19 01:36:36;;;;;;;;;53.00;40.67;;;;;-143.90;100.00;76115.06;4956547;28;101823;-78
2024/01/19 01:39:02;;;;;;;;;46.33;42.33;;;;;-143.90;100.00;76133.69;4959109;28;102147;-77
2024/01/19 01:41:29;;;;;;;;;48.33;36.00;;;;;-143.90;100.00;76133.69;4953705;28;101821;-78
2024/01/19 01:43:56;;;;;;;;;41.67;31.00;;;;;-143.90;100.00;76127.47;4937618;28;103714;-78
2024/01/19 01:46:22;;;;;;;;;37.67;30.67;;;;;-143.90;100.00;76125.41;4953960;28;103529;-78
2024/01/19 01:48:49;;;;;;;;;43.33;36.67;;;;;-143.90;100.00;76135.75;4954368;28;102052;-77
2024/01/19 01:51:16;;;;;;;;;44.33;34.67;;;;;-143.90;100.00;76148.16;4956926;28;101560;-77
2024/01/19 01:53:42;;;;;;;;;47.33;39.67;;;;;-143.90;100.00;76150.22;4950594;28;103513;-77
2024/01/19 01:56:09;;;;;;;;;44.00;38.00;;;;;-143.90;100.00;76162.63;4960713;28;104917;-77
2024/01/19 01:58:36;;;;;;;;;41.33;30.00;;;;;-143.90;100.00;76177.09;4951310;28;103051;-77
2024/01/19 02:01:03;;;;;;;;;39.33;34.00;;;;;-143.90;100.00;76177.09;4958413;28;101729;-76
2024/01/19 02:03:31;;;;;;;;;32.67;28.67;;;;;-143.90;100.00;76185.38;4950156;28;109825;-77
2024/01/19 02:06:00;;;;;;;;;34.00;23.00;;;;;-143.90;100.00;76189.50;4937280;28;101760;-78
2024/01/19 02:08:27;;;;;;;;;34.33;27.67;;;;;-143.90;100.00;76197.78;4958241;28;101942;-78
2024/01/19 02:10:53;;;;;;;;;30.67;24.67;;;;;-143.90;100.00;76212.25;4971319;28;103129;-78
2024/01/19 02:13:20;;;;;;;;;30.67;26.00;;;;;-143.90;100.00;76210.19;4965426;28;103479;-78
2024/01/19 02:15:47;;;;;;;;;31.67;26.00;;;;;-143.90;100.00;76212.25;4947757;28;102699;-78
2024/01/19 02:18:13;;;;;;;;;29.00;25.00;;;;;-143.90;100.00;76208.13;4948533;28;104478;-78
2024/01/19 02:20:41;;;;;;;;;31.33;24.33;;;;;-143.90;100.00;76226.72;4972544;28;101526;-78
2024/01/19 02:23:13;;;;;;;;;28.00;23.67;;;;;-143.90;100.00;76212.25;4941171;28;103850;-77
2024/01/19 02:25:40;;;;;;;;;25.00;20.00;;;;;-143.90;100.00;76232.94;4931940;28;102106;-78
2024/01/19 02:28:07;;;;;;;;;33.00;28.33;;;;;-143.90;100.00;76239.13;4935664;28;102063;-78
2024/01/19 02:30:34;;;;;;;;;32.33;25.33;;;;;-143.90;100.00;76247.41;4954923;28;102443;-78
2024/01/19 02:33:02;;;;;;;;;25.67;22.00;;;;;-143.90;100.00;76245.34;4956658;28;103285;-79
2024/01/19 02:35:29;;;;;;;;;19.33;16.67;;;;;-143.90;100.00;76247.41;4963581;28;101784;-78
2024/01/19 02:37:56;;;;;;;;;28.33;24.67;;;;;-143.90;100.00;76259.81;4901402;28;102211;-78
2024/01/19 02:40:22;;;;;;;;;34.67;27.67;;;;;-143.90;100.00;76257.75;4948589;28;106087;-78
2024/01/19 02:42:49;;;;;;;;;33.67;21.67;;;;;-143.90;100.00;76268.09;4958442;28;103534;-76
2024/01/19 02:45:16;;;;;;;;;25.67;22.33;;;;;-143.90;100.00;76268.09;4922659;28;103052;-77
2024/01/19 02:47:42;;;;;;;;;28.33;22.00;;;;;-143.90;100.00;76274.28;4939304;28;102162;-77
2024/01/19 02:50:09;;;;;;;;;29.67;26.00;;;;;-143.90;100.00;76272.22;4941308;28;101800;-77
2024/01/19 02:52:36;;;;;;;;;35.33;27.67;;;;;-143.90;100.00;76263.97;4958406;28;103532;-77
2024/01/19 02:55:04;;;;;;;;;23.00;18.00;;;;;-143.90;100.00;76249.47;4956668;28;101959;-76
2024/01/19 02:57:34;;;;;;;;;20.00;16.67;;;;;-143.90;100.00;76235.00;4968571;28;101969;-79
2024/01/19 03:00:01;;;;;;;;;20.00;15.67;;;;;-143.90;100.00;76230.88;4973302;28;102049;-78
2024/01/19 03:02:27;;;;;;;;;28.00;22.00;;;;;-143.90;100.00;76261.88;4954956;28;103686;-78
2024/01/19 03:04:54;;;;;;;;;24.67;21.00;;;;;-143.90;100.00;76266.03;4955372;28;102394;-79
2024/01/19 03:07:22;;;;;;;;;17.67;16.67;;;;;-143.90;100.00;76255.69;4948379;28;101779;-78
2024/01/19 03:09:49;;;;;;;;;36.33;25.33;;;;;-143.90;100.00;76251.53;4933031;28;101948;-77
2024/01/19 03:12:17;;;;;;;;;21.33;17.67;;;;;-143.90;100.00;76263.97;4959952;28;103491;-77
2024/01/19 03:14:44;;;;;;;;;29.00;24.00;;;;;-143.90;100.00;76261.88;4962048;28;103505;-76
2024/01/19 03:17:12;;;;;;;;;27.67;20.67;;;;;-143.90;100.00;76270.16;4945140;28;102040;-76
2024/01/19 03:19:38;;;;;;;;;24.33;21.33;;;;;-143.90;100.00;76272.22;4935183;28;103755;-77
2024/01/19 03:22:05;;;;;;;;;28.00;24.00;;;;;-143.90;100.00;76297.03;4950271;28;103573;-77
2024/01/19 03:24:31;;;;;;;;;22.33;11.67;;;;;-143.90;100.00;76286.69;4954188;28;102034;-77
2024/01/19 03:26:58;;;;;;;;;20.00;16.00;;;;;-143.90;100.00;76286.69;4934625;28;102015;-78
2024/01/19 03:29:26;;;;;;;;;23.00;16.67;;;;;-143.90;100.00;76313.59;4950856;28;102087;-77
2024/01/19 03:31:53;;;;;;;;;22.33;17.67;;;;;-143.90;100.00;76317.72;4925154;28;103481;-78
2024/01/19 03:34:20;;;;;;;;;26.33;22.00;;;;;-143.90;100.00;76323.94;4947688;28;102291;-78
2024/01/19 03:36:47;;;;;;;;;23.00;14.00;;;;;-143.90;100.00;76328.06;4962521;28;101976;-78
2024/01/19 03:39:14;;;;;;;;;29.33;21.33;;;;;-143.90;100.00;76334.25;4964741;28;101946;-78
2024/01/19 03:41:40;;;;;;;;;18.67;17.67;;;;;-143.90;100.00;76344.59;4948385;28;103431;-78
2024/01/19 03:44:07;;;;;;;;;25.33;17.00;;;;;-143.90;100.00;76346.69;4950988;28;101841;-77
2024/01/19 03:46:34;;;;;;;;;19.67;14.33;;;;;-143.90;100.00;76363.22;4940710;28;101815;-77
2024/01/19 03:49:00;;;;;;;;;10.33;10.00;;;;;-143.90;100.00;76357.00;4965097;28;101975;-78
2024/01/19 03:51:27;;;;;;;;;12.00;11.33;;;;;-143.90;100.00;76367.34;4939929;28;103693;-78
2024/01/19 03:53:53;;;;;;;;;17.00;13.00;;;;;-143.90;100.00;76367.34;4928235;28;101949;-78
2024/01/19 03:56:20;;;;;;;;;26.67;17.00;;;;;-143.90;100.00;76379.75;4931903;28;101605;-77
2024/01/19 03:58:47;;;;;;;;;17.33;14.67;;;;;-143.90;100.00;76371.50;4959473;28;101925;-77
2024/01/19 04:01:15;;;;;;;;;20.67;16.33;;;;;-143.90;100.00;76367.34;4929337;28;103487;-77
2024/01/19 04:03:44;;;;;;;;;10.33;10.33;;;;;-143.90;100.00;76369.41;4923917;28;101847;-76
2024/01/19 04:06:11;;;;;;;;;11.67;8.00;;;;;-143.90;100.00;76392.16;4950472;28;101986;-78
2024/01/19 04:08:38;;;;;;;;;25.33;19.33;;;;;-143.90;100.00;76383.91;4938589;28;102204;-77
2024/01/19 04:11:04;;;;;;;;;16.67;15.33;;;;;-143.90;100.00;76392.16;4951013;28;103406;-78
2024/01/19 04:13:31;;;;;;;;;20.00;17.33;;;;;-143.90;100.00;76390.09;4968822;28;101611;-78
2024/01/19 04:15:57;;;;;;;;;18.33;16.67;;;;;-143.90;100.00;76400.44;4946556;28;104281;-77
2024/01/19 04:18:24;;;;;;;;;19.00;15.33;;;;;-143.90;100.00;76396.31;4963295;28;101654;-78
2024/01/19 04:20:51;;;;;;;;;19.00;14.00;;;;;-143.90;100.00;76406.66;4951836;28;103373;-78
2024/01/19 04:23:19;;;;;;;;;22.00;19.33;;;;;-143.90;100.00;76417.00;4934372;28;102226;-76
2024/01/19 04:25:45;;;;;;;;;24.33;22.67;;;;;-143.90;100.00;76421.13;4934866;22;102317;-72
2024/01/19 04:28:12;;;;;;;;;22.67;16.67;;;;;-143.90;100.00;76421.13;4915192;28;102182;-73
2024/01/19 04:30:39;;;;;;;;;22.67;19.33;;;;;-143.90;100.00;76454.22;4917742;28;105163;-72
2024/01/19 04:33:05;;;;;;;;;22.00;17.33;;;;;-143.90;100.00;76462.47;4917889;28;103062;-73
2024/01/19 04:35:32;;;;;;;;;20.00;16.00;;;;;-143.90;100.00;76474.91;4912650;28;102607;-73
2024/01/19 04:37:59;;;;;;;;;15.33;14.67;;;;;-143.90;100.00;76472.81;4903842;28;104054;-73
2024/01/19 04:40:26;;;;;;;;;16.67;14.67;;;;;-143.90;100.00;76483.16;4913780;28;104060;-74
2024/01/19 04:42:53;;;;;;;;;13.33;10.00;;;;;-143.90;100.00;76487.31;4908582;28;103499;-73
2024/01/19 04:45:19;;;;;;;;;14.00;8.00;;;;;-143.90;100.00;76466.63;4912248;28;102261;-72
2024/01/19 04:47:46;;;;;;;;;18.33;16.00;;;;;-143.90;100.00;76476.97;4904486;28;103216;-73
2024/01/19 04:50:13;;;;;;;;;17.67;14.67;;;;;-143.90;100.00;76489.38;4915804;28;104027;-74
2024/01/19 04:52:40;;;;;;;;;20.33;14.33;;;;;-143.90;100.00;76487.31;4916010;28;102523;-72
2024/01/19 04:55:07;;;;;;;;;15.33;15.00;;;;;-143.90;100.00;76493.50;4914199;28;102235;-73
2024/01/19 04:57:34;;;;;;;;;22.33;17.67;;;;;-143.90;100.00;76497.63;4924065;28;104303;-73
2024/01/19 05:00:00;;;;;;;;;20.00;17.00;;;;;-143.90;100.00;76497.63;4921221;28;108859;-73
2024/01/19 05:02:29;;;;;;;;;18.33;16.00;;;;;-143.90;100.00;76524.53;4917820;28;102688;-73
2024/01/19 05:04:56;;;;;;;;;14.67;13.00;;;;;-143.90;100.00;76518.31;4914299;28;104783;-75
2024/01/19 05:07:23;;;;;;;;;17.00;16.00;;;;;-143.90;100.00;76524.53;4918118;28;102105;-74
2024/01/19 05:09:49;;;;;;;;;19.67;15.33;;;;;-143.90;100.00;76516.25;4894196;28;104347;-73
2024/01/19 05:12:16;;;;;;;;;13.67;12.33;;;;;-143.90;100.00;76528.66;4912853;28;102509;-74
2024/01/19 05:14:43;;;;;;;;;11.67;9.67;;;;;-143.90;100.00;76530.72;4914464;28;102427;-74
2024/01/19 05:17:09;;;;;;;;;11.33;5.33;;;;;-143.90;100.00;76528.66;4917430;28;102498;-73
2024/01/19 05:19:36;;;;;;;;;17.33;14.00;;;;;-143.90;100.00;76536.94;4904236;28;104280;-73
2024/01/19 05:22:03;;;;;;;;;18.00;14.33;;;;;-143.90;100.00;76545.22;4906425;28;102700;-72
2024/01/19 05:24:30;;;;;;;;;19.67;13.00;;;;;-143.90;100.00;76553.47;4912723;28;102496;-73
2024/01/19 05:26:56;;;;;;;;;17.33;14.67;;;;;-143.90;100.00;76559.69;4915898;28;102780;-72
2024/01/19 05:29:23;;;;;;;;;19.00;15.67;;;;;-143.90;100.00;76553.47;4914851;28;104134;-73
2024/01/19 05:31:50;;;;;;;;;19.00;13.00;;;;;-143.90;100.00;76545.22;4901529;28;104711;-74
2024/01/19 05:34:17;;;;;;;;;18.00;15.00;;;;;-143.90;100.00;76557.63;4916457;28;102295;-76
2024/01/19 05:36:43;;;;;;;;;14.33;14.33;;;;;-143.90;100.00;76563.81;4918211;28;102597;-74
2024/01/19 05:39:10;;;;;;;;;19.33;15.33;;;;;-143.90;100.00;76561.75;4918351;28;104020;-74
2024/01/19 05:41:37;;;;;;;;;27.67;22.67;;;;;-143.90;100.00;76561.75;4916279;28;102292;-75
2024/01/19 05:44:03;;;;;;;;;26.67;13.00;;;;;-143.90;100.00;76572.09;4921702;28;102458;-75
2024/01/19 05:46:30;;;;;;;;;18.67;13.67;;;;;-143.90;100.00;76576.22;4921651;28;102167;-74
2024/01/19 05:48:56;;;;;;;;;17.00;16.00;;;;;-143.90;100.00;76570.03;4922714;28;104200;-74
2024/01/19 05:51:23;;;;;;;;;17.33;14.67;;;;;-143.90;100.00;76574.16;4919810;28;102688;-75
2024/01/19 05:53:50;;;;;;;;;16.00;15.33;;;;;-143.90;100.00;76586.56;4914428;28;102712;-75
2024/01/19 05:56:16;;;;;;;;;19.00;16.00;;;;;-143.90;100.00;76590.72;4930270;28;102537;-74
2024/01/19 05:58:44;;;;;;;;;23.67;15.33;;;;;-143.90;100.00;76594.84;4925472;28;104110;-74
2024/01/19 06:01:10;;;;;;;;;17.33;13.00;;;;;-143.90;100.00;76603.13;4930751;28;103920;-75
2024/01/19 06:03:38;;;;;;;;;21.00;16.33;;;;;-143.90;100.00;76619.66;4923503;28;103290;-75
2024/01/19 06:06:05;;;;;;;;;15.00;13.33;;;;;-143.90;100.00;76613.47;4923093;28;102043;-74
2024/01/19 06:08:32;;;;;;;;;19.00;14.00;;;;;-143.90;100.00;76621.72;4930215;28;104114;-75
2024/01/19 06:10:59;;;;;;;;;21.33;17.00;;;;;-143.90;100.00;76642.41;4923745;28;104457;-75
2024/01/19 06:13:25;;;;;;;;;16.33;13.00;;;;;-143.90;100.00;76642.41;4924824;28;102183;-75
2024/01/19 06:15:52;;;;;;;;;20.67;14.33;;;;;-143.90;100.00;76656.88;4911666;28;103307;-74
2024/01/19 06:18:19;;;;;;;;;22.33;18.00;;;;;-143.90;100.00;76648.63;4919827;28;104058;-74
2024/01/19 06:20:46;;;;;;;;;13.00;11.33;;;;;-143.90;100.00;76636.22;4920999;28;102048;-75
2024/01/19 06:23:13;;;;;;;;;15.67;14.00;;;;;-143.90;100.00;76632.06;4920882;28;102418;-73
2024/01/19 06:25:40;;;;;;;;;14.00;11.00;;;;;-143.90;100.00;76619.66;4914808;28;102374;-72
2024/01/19 06:28:08;;;;;;;;;9.67;7.67;;;;;-143.90;100.00;76613.47;4926252;28;104003;-74
2024/01/19 06:30:34;;;;;;;;;17.00;13.00;;;;;-143.90;100.00;76623.78;4919881;28;102873;-75
2024/01/19 06:33:05;;;;;;;;;13.67;9.67;;;;;-143.90;100.00;76636.22;4922148;28;102256;-72
2024/01/19 06:35:32;;;;;;;;;17.00;14.00;;;;;-143.90;100.00;76638.28;4924587;28;102631;-73
2024/01/19 06:38:00;;;;;;;;;16.00;11.67;;;;;-143.90;100.00;76646.53;4921940;28;104928;-73
2024/01/19 06:40:27;;;;;;;;;19.00;14.67;;;;;-143.90;100.00;76646.53;4913744;28;102268;-73
2024/01/19 06:42:53;;;;;;;;;13.00;12.00;;;;;-143.90;100.00;76644.47;4921240;28;102224;-73
2024/01/19 06:45:23;;;;;;;;;16.00;15.67;;;;;-143.90;100.00;76638.28;4923265;28;102187;-73
2024/01/19 06:47:50;;;;;;;;;12.33;9.33;;;;;-143.90;100.00;76632.06;4913264;28;104238;-73
2024/01/19 06:50:16;;;;;;;;;14.33;8.00;;;;;-143.90;100.00;76619.66;4924692;28;102176;-73
2024/01/19 06:52:43;;;;;;;;;8.00;7.67;;;;;-143.90;100.00;76619.66;4925102;28;102588;-73
2024/01/19 06:55:10;;;;;;;;;13.00;7.33;;;;;-143.90;100.00;76623.78;4927103;28;102550;-72
2024/01/19 06:57:36;;;;;;;;;13.67;9.00;;;;;-143.90;100.00;76613.47;4918035;28;104068;-74
2024/01/19 07:00:04;;;;;;;;;11.00;10.00;;;;;-143.90;100.00;76609.31;4902140;28;102606;-73
2024/01/19 07:02:31;;;;;;;;;9.33;8.33;;;;;-143.90;100.00;76607.25;4922079;28;102026;-74
2024/01/19 07:04:58;;;;;;;;;9.67;9.67;;;;;-143.90;100.00;76605.19;4922190;28;102349;-73
2024/01/19 07:07:24;;;;;;;;;2.33;1.00;;;;;-143.90;100.00;76607.25;4919481;28;104104;-73
2024/01/19 07:09:51;;;;;;;;;7.33;5.67;;;;;-143.90;100.00;76598.97;4913670;28;102359;-73
2024/01/19 07:12:18;;;;;;;;;7.33;6.67;;;;;-143.90;100.00;76609.31;4923085;28;102280;-73
2024/01/19 07:14:45;;;;;;;;;16.00;6.00;;;;;-143.90;100.00;76594.84;4926618;28;102051;-73
2024/01/19 07:17:12;;;;;;;;;5.00;5.00;;;;;-143.90;100.00;76590.72;4923542;28;104276;-72
2024/01/19 07:19:41;;;;;;;;;14.67;13.00;;;;;-143.90;100.00;76634.13;4911923;28;102390;-71
2024/01/19 07:22:09;;;;;;;;;22.00;15.33;;;;;-143.90;100.00;76623.78;4924150;28;103393;-71
2024/01/19 07:24:36;;;;;;;;;16.00;11.67;;;;;-143.90;100.00;76603.13;4923402;28;102470;-72
2024/01/19 07:27:04;;;;;;;;;13.00;7.00;;;;;-143.90;100.00;76588.63;4923118;28;104141;-73
2024/01/19 07:29:34;;;;;;;;;7.67;5.00;;;;;-143.90;100.00;76578.31;4924610;28;104867;-73
2024/01/19 07:32:00;;;;;;;;;7.00;5.00;;;;;-143.90;100.00;76574.16;4915735;28;102157;-73
2024/01/19 07:34:27;;;;;;;;;25.33;20.00;;;;;-143.90;100.00;76605.19;4919062;28;102391;-73
2024/01/19 07:36:54;;;;;;;;;25.00;23.00;;;;;-143.90;100.00;76636.22;4920563;28;103993;-73
2024/01/19 07:39:23;;;;;;;;;26.00;21.67;;;;;-143.90;100.00;76646.53;4918619;28;102309;-73
2024/01/19 07:41:53;;;;;;;;;29.00;24.67;;;;;-143.90;100.00;76650.69;4908610;28;102501;-72
2024/01/19 07:44:20;;;;;;;;;26.67;23.00;;;;;-143.90;100.00;76652.75;4916245;28;102397;-72
2024/01/19 07:46:47;;;;;;;;;26.67;23.00;;;;;-143.90;100.00;76636.22;4919680;28;103833;-73
2024/01/19 07:49:21;;;;;;;;;25.33;21.33;;;;;-143.90;100.00;76648.63;4921139;28;103067;-71
2024/01/19 07:51:48;;;;;;;;;26.00;21.33;;;;;-143.90;100.00;76648.63;4910974;28;102607;-71
2024/01/19 07:54:16;;;;;;;;;26.67;21.67;;;;;-143.90;100.00;76646.53;4922114;28;102704;-72
2024/01/19 07:56:43;;;;;;;;;15.67;14.33;;;;;-143.90;100.00;76663.09;4912308;28;108311;-73
2024/01/19 07:59:10;;;;;;;;;27.00;21.00;;;;;-143.90;100.00;76669.28;4933207;28;103114;-73
2024/01/19 08:01:38;;;;;;;;;23.00;17.67;;;;;-143.90;100.00;76648.63;4910792;28;102023;-73
2024/01/19 08:04:05;;;;;;;;;34.33;23.67;;;;;-143.90;100.00;76661.03;4913940;28;102367;-73
2024/01/19 08:06:31;;;;;;;;;28.00;20.33;;;;;-143.90;100.00;76661.03;4920738;28;104044;-73
2024/01/19 08:08:58;;;;;;;;;17.00;14.00;;;;;-143.90;100.00;76644.47;4923155;28;105029;-73
2024/01/19 08:11:25;;;;;;;;;28.00;20.00;;;;;-143.90;100.00;76656.88;4923287;28;102823;-72
2024/01/19 08:13:51;;;;;;;;;26.67;22.67;;;;;-143.90;100.00;76652.75;4914342;28;101996;-72
2024/01/19 08:16:18;;;;;;;;;31.67;27.00;;;;;-143.90;100.00;76669.28;4924400;28;104077;-72
2024/01/19 08:18:44;;;;;;;;;30.00;26.67;;;;;-143.90;100.00;76669.28;4926720;28;102719;-73
2024/01/19 08:21:11;;;;;;;;;25.67;22.33;;;;;-143.90;100.00;76673.44;4923070;28;102427;-73
2024/01/19 08:23:38;;;;;;;;;28.67;25.33;;;;;-143.90;100.00;76694.13;4920975;28;102075;-72
2024/01/19 08:26:06;;;;;;;;;32.67;19.67;;;;;-143.90;100.00;76694.13;4921905;28;108995;-73
2024/01/19 08:28:33;;;;;;;;;27.33;22.67;;;;;-143.90;100.00;76692.03;4923902;28;103424;-72
2024/01/19 08:31:00;;;;;;;;;33.67;26.67;;;;;-143.90;100.00;76694.13;4925692;28;103151;-72
2024/01/19 08:33:27;;;;;;;;;30.67;26.00;;;;;-143.90;100.00;76704.47;4925723;28;102005;-72
2024/01/19 08:35:54;;;;;;;;;30.00;26.67;;;;;-143.90;100.00;76706.53;4912198;28;103465;-72
2024/01/19 08:38:20;;;;;;;;;25.67;24.67;;;;;-143.90;100.00;76714.78;4925459;28;102867;-72
2024/01/19 08:40:47;;;;;;;;;36.33;25.00;;;;;-143.90;100.00;76739.63;4919857;28;102051;-73
2024/01/19 08:43:14;;;;;;;;;34.33;29.67;;;;;-143.90;100.00;76737.53;4920851;28;102760;-72
2024/01/19 08:45:40;;;;;;;;;44.67;34.00;;;;;-143.90;100.00;76737.53;4913365;28;104005;-71
2024/01/19 08:48:07;;;;;;;;;33.00;28.33;;;;;-143.90;100.00;76741.69;4923345;28;102320;-72
2024/01/19 08:50:34;;;;;;;;;24.33;22.33;;;;;-143.90;100.00;76768.56;4919845;28;103042;-74
2024/01/19 08:53:02;;;;;;;;;31.67;19.67;;;;;-143.90;100.00;76778.91;4927339;28;104694;-72
2024/01/19 08:55:29;;;;;;;;;21.67;21.67;;;;;-143.90;100.00;76768.56;4919753;28;103967;-73
2024/01/19 08:57:56;;;;;;;;;25.33;19.33;;;;;-143.90;100.00;76752.03;4911621;28;102297;-72
2024/01/19 09:00:22;;;;;;;;;30.33;25.67;;;;;-143.90;100.00;76758.22;4921728;28;101911;-73
2024/01/19 09:02:49;;;;;;;;;19.67;19.67;;;;;-143.90;100.00;76725.13;4918308;28;103025;-72
2024/01/19 09:05:28;;;;;;;;;27.00;19.67;;;;;-143.90;100.00;76747.88;4913846;28;104143;-73
2024/01/19 09:07:55;;;;;;;;;23.33;22.33;;;;;-143.90;100.00;76789.25;4909101;28;102366;-73
2024/01/19 09:10:23;;;;;;;;;26.33;22.00;;;;;-143.90;100.00;76814.06;4920322;28;104185;-73
2024/01/19 09:12:50;;;;;;;;;24.33;20.00;;;;;-143.90;100.00;76803.72;4921763;28;102329;-72
2024/01/19 09:15:17;;;;;;;;;24.33;18.67;;;;;-143.90;100.00;76809.94;4924324;28;104179;-72
2024/01/19 09:17:44;;;;;;;;;22.67;18.33;;;;;-143.90;100.00;76801.66;4912727;28;102910;-72
2024/01/19 09:20:11;;;;;;;;;20.00;19.67;;;;;-143.90;100.00;76785.13;4928170;28;102464;-72
2024/01/19 09:22:38;;;;;;;;;22.33;20.67;;;;;-143.90;100.00;76760.28;4924682;28;102478;-73
2024/01/19 09:25:05;;;;;;;;;18.33;15.33;;;;;-143.90;100.00;76735.47;4925722;28;110755;-72
2024/01/19 09:27:32;;;;;;;;;33.67;24.00;;;;;-143.90;100.00;76756.16;4917672;28;102457;-72
2024/01/19 09:29:59;;;;;;;;;33.00;23.00;;;;;-143.90;100.00;76739.63;4904220;28;102280;-72
2024/01/19 09:32:26;;;;;;;;;29.33;23.00;;;;;-143.90;100.00;76716.88;4920479;28;102208;-72
2024/01/19 09:34:53;;;;;;;;;32.33;26.67;;;;;-143.90;100.00;76723.06;4921218;28;104345;-72
2024/01/19 09:37:20;;;;;;;;;32.00;24.33;;;;;-143.90;100.00;76743.75;4927876;28;102500;-72
2024/01/19 09:39:47;;;;;;;;;47.00;35.00;;;;;-143.90;100.00;76752.03;4914014;28;102402;-72
2024/01/19 09:42:27;;;;;;;;;43.33;36.00;;;;;-143.90;100.00;76770.63;4924081;28;102319;-72
2024/01/19 09:45:17;;;;;;;;;47.00;37.33;;;;;-143.90;100.00;76718.94;4923996;28;104237;-72
2024/01/19 09:48:18;;;;;;;;;52.67;37.00;;;;;-143.90;100.00;76735.47;4914296;28;102991;-72
2024/01/19 09:50:47;;;;;;;;;41.33;32.00;;;;;-143.90;100.00;76708.59;4928733;28;102122;-72
2024/01/19 09:53:27;;;;;;;;;45.67;34.67;;;;;-143.90;100.00;76721.00;4920017;28;102316;-71
2024/01/19 09:55:53;;;;;;;;;45.00;34.00;;;;;-143.90;100.00;76681.72;4922476;28;105258;-71
2024/01/19 09:58:21;;;;;;;;;28.67;24.33;;;;;-143.90;100.00;76677.56;4925517;28;102521;-73
2024/01/19 10:00:50;;;;;;;;;44.33;30.00;;;;;-143.90;100.00;76644.47;4923151;28;102404;-71
2024/01/19 10:03:17;;;;;;;;;24.67;23.00;;;;;-143.90;100.00;76652.75;4923400;28;102319;-72
2024/01/19 10:05:45;;;;;;;;;36.67;29.67;;;;;-143.90;100.00;76636.22;4915243;28;103997;-72
2024/01/19 10:08:12;;;;;;;;;37.33;27.00;;;;;-143.90;100.00;76656.88;4924714;28;102372;-72
2024/01/19 10:10:42;;;;;;;;;35.00;28.00;;;;;-143.90;100.00;76638.28;4920740;28;102133;-71
2024/01/19 10:13:11;;;;;;;;;35.67;31.00;;;;;-143.90;100.00;76665.16;4923424;28;102098;-72
2024/01/19 10:15:38;;;;;;;;;45.00;37.67;;;;;-143.90;100.00;76698.25;4915656;28;108881;-74
2024/01/19 10:18:06;;;;;;;;;37.33;31.00;;;;;-143.90;100.00;76679.63;4920480;28;102425;-72
2024/01/19 10:20:34;;;;;;;;;44.00;35.67;;;;;-143.90;100.00;76702.38;4923110;28;102659;-72
2024/01/19 10:23:21;;;;;;;;;36.00;29.33;;;;;-143.90;100.00;76677.56;4925222;28;105220;-72
2024/01/19 10:25:48;;;;;;;;;41.00;30.00;;;;;-143.90;100.00;76652.75;4906912;28;108710;-73
2024/01/19 10:28:33;;;;;;;;;38.33;28.00;;;;;-143.90;100.00;76656.88;4919078;28;102437;-72
2024/01/19 10:31:17;;;;;;;;;31.33;27.67;;;;;-143.90;100.00;76656.88;4921695;28;102200;-72
2024/01/19 10:34:02;;;;;;;;;36.33;27.67;;;;;-143.90;100.00;76615.53;4915256;28;102518;-72
2024/01/19 10:36:39;;;;;;;;;34.00;28.00;;;;;-143.90;100.00;76652.75;4919333;28;104191;-72
2024/01/19 10:39:26;;;;;;;;;45.33;28.33;;;;;-143.90;100.00;76607.25;4924486;28;102469;-71
2024/01/19 10:42:04;;;;;;;;;31.00;27.67;;;;;-143.90;100.00;76607.25;4910398;28;102507;-72
2024/01/19 10:44:31;;;;;;;;;45.33;33.67;;;;;-143.90;100.00;76615.53;4921399;28;101996;-72
2024/01/19 10:46:58;;;;;;;;;33.00;26.67;;;;;-143.90;100.00;76592.78;4935393;28;104080;-72
2024/01/19 10:49:25;;;;;;;;;33.33;22.33;;;;;-143.90;100.00;76572.09;4923195;28;102522;-72